Estación de Peldehue

Ultimos registro cada 15 minutos 94
Estación Fecha / Hora Temperatura Humedad Lluvia Velocidad Dirección Radiación Presion
94 Peldehue 05-05-2026 23:15 12,2 75,8 0 0 222 0,6 934,3
93 Peldehue 05-05-2026 23:00 12,3 76,9 0 0 226 0,6 934,4
92 Peldehue 05-05-2026 22:45 12,2 77,4 0 0 230 0,6 934,5
91 Peldehue 05-05-2026 22:30 12,4 76,5 0 0 230 0,6 934,3
90 Peldehue 05-05-2026 22:15 12,7 75,9 0 0 230 0,6 934,3
89 Peldehue 05-05-2026 22:00 13,2 74,4 0 0,5 230 0,6 934,5
88 Peldehue 05-05-2026 21:45 13,4 73,3 0 0 211 0,6 934,7
87 Peldehue 05-05-2026 21:30 13,6 72,6 0 0 218 0,6 934,5
86 Peldehue 05-05-2026 21:15 13,7 71,8 0 0,5 216 0,6 934,4
85 Peldehue 05-05-2026 21:00 14,2 69,8 0 0 215 0,6 934,4
84 Peldehue 05-05-2026 20:45 14,5 68,8 0 0,5 218 0,6 934,4
83 Peldehue 05-05-2026 20:30 14,9 67 0 0 216 0,6 934,3
82 Peldehue 05-05-2026 20:15 15,2 66,4 0 0 216 0,6 933,9
81 Peldehue 05-05-2026 20:00 15,5 65,7 0 0 216 0,6 933,6
80 Peldehue 05-05-2026 19:45 15,6 65,1 0 0 216 0,6 933,5
79 Peldehue 05-05-2026 19:30 15,8 65 0 0 216 0,6 933,3
78 Peldehue 05-05-2026 19:15 16,2 63,6 0 0 219 0,6 933,4
77 Peldehue 05-05-2026 19:00 16,6 62,4 0 0 220 0,6 933,4
76 Peldehue 05-05-2026 18:45 16,9 60 0 0 220 0,6 933
75 Peldehue 05-05-2026 18:30 17 57,7 0 0 219 0,6 932,9
74 Peldehue 05-05-2026 18:15 17,3 56,8 0 0 219 0,6 932,8
73 Peldehue 05-05-2026 18:00 17,9 54,4 0 0,5 222 5,6 932,8
72 Peldehue 05-05-2026 17:45 18,2 52,4 0 1 239 33,1 932,2
71 Peldehue 05-05-2026 17:30 18,6 50,5 0 1 226 36,9 932,1
70 Peldehue 05-05-2026 17:15 18,9 48,7 0 1 223 43,1 932
69 Peldehue 05-05-2026 17:00 19,3 46,2 0 1,5 233 61,9 932,1
68 Peldehue 05-05-2026 16:45 20,1 42,9 0 1,5 229 88,1 931,8
67 Peldehue 05-05-2026 16:30 20,8 40,3 0 1,5 230 135,6 931,8
66 Peldehue 05-05-2026 16:15 21,7 38 0 2 239 128,1 931,9
65 Peldehue 05-05-2026 16:00 23 34,9 0 1,5 239 145,6 932
64 Peldehue 05-05-2026 15:45 24,3 30,8 0 2 244 398,1 931,9
63 Peldehue 05-05-2026 15:30 23,7 30,2 0 1,5 233 606,9 931,7
62 Peldehue 05-05-2026 15:15 23,5 29,2 0 1 229 459,4 931,6
61 Peldehue 05-05-2026 15:00 23,2 28,2 0 1,5 232 263,1 931,7
60 Peldehue 05-05-2026 14:45 23,4 28,4 0 1 236 258,1 931,6
59 Peldehue 05-05-2026 14:30 23,6 27,9 0 1,5 236 268,1 931,4
58 Peldehue 05-05-2026 14:15 23,4 28,6 0 1,5 233 266,9 931,2
57 Peldehue 05-05-2026 14:00 23,5 29,2 0 1,5 234 290,6 931,2
56 Peldehue 05-05-2026 13:45 23,5 29,1 0 1,5 239 223,1 931,3
55 Peldehue 05-05-2026 13:30 24 28,4 0 1,5 229 215,6 931,4
54 Peldehue 05-05-2026 13:15 25,7 22,9 0 0 222 248,1 931,4
53 Peldehue 05-05-2026 13:00 25,8 20,7 0 0 209 406,9 931,2
52 Peldehue 05-05-2026 12:45 25,9 22 0 0 208 330,6 931,6
51 Peldehue 05-05-2026 12:30 24,4 23,2 0 0 208 340,6 931,7
50 Peldehue 05-05-2026 12:15 23,9 27 0 0 204 781,9 931,4
49 Peldehue 05-05-2026 12:00 24,4 24,6 0 0 202 231,9 932
48 Peldehue 05-05-2026 11:45 24 25,3 0 0 202 389,4 932,1
47 Peldehue 05-05-2026 11:30 22,4 28,5 0 0 201 240,6 932,5
46 Peldehue 05-05-2026 11:15 21,4 29,2 0 0 201 366,9 932,5
45 Peldehue 05-05-2026 11:00 21,3 30,3 0 0 202 738,1 932,4
44 Peldehue 05-05-2026 10:45 20,5 31,5 0 0 204 260,6 933,2
43 Peldehue 05-05-2026 10:30 20,2 32,9 0 0 205 260,6 933,1
42 Peldehue 05-05-2026 10:15 18,1 38,2 0 0 206 301,9 933,2
41 Peldehue 05-05-2026 10:00 19,1 34,8 0 0 208 458,1 933,3
40 Peldehue 05-05-2026 09:45 16,9 38,6 0 0 208 420,6 933,4
39 Peldehue 05-05-2026 09:30 14,3 43,3 0 0 208 143,1 933,9
38 Peldehue 05-05-2026 09:15 13,9 43,3 0 0 208 104,4 934,1
37 Peldehue 05-05-2026 09:00 13,3 47,7 0 0 208 131,9 934,3
36 Peldehue 05-05-2026 08:45 12,4 49,3 0 0 208 111,9 934,5
35 Peldehue 05-05-2026 08:30 11,5 51,3 0 0 208 60,6 934,6
34 Peldehue 05-05-2026 08:15 11 52,7 0 0 208 26,9 934,6
33 Peldehue 05-05-2026 08:00 11,2 51,2 0 0 208 30,6 934,7
32 Peldehue 05-05-2026 07:45 11 49,9 0 0 208 15,6 934,5
31 Peldehue 05-05-2026 07:30 11,9 48,8 0 0 208 4,4 934,5
30 Peldehue 05-05-2026 07:15 12 50,3 0 0 208 0,6 934,4
29 Peldehue 05-05-2026 07:00 11,8 50,3 0 0 208 0,6 934,2
28 Peldehue 05-05-2026 06:45 11,8 51,1 0 0 208 0,6 934
27 Peldehue 05-05-2026 06:30 12 48 0 0 208 0,6 934,1
26 Peldehue 05-05-2026 06:15 12,2 49,1 0 0 208 0,6 933,5
25 Peldehue 05-05-2026 06:00 12,6 45,3 0 0 208 0,6 933,4
24 Peldehue 05-05-2026 05:45 11,9 48,4 0 0 208 0,6 932,8
23 Peldehue 05-05-2026 05:30 11,3 47,9 0 0 208 0,6 932,9
22 Peldehue 05-05-2026 05:15 10,9 49,2 0 0 208 0,6 932,5
21 Peldehue 05-05-2026 05:00 10,4 49,4 0 0 208 0,6 932,1
20 Peldehue 05-05-2026 04:45 10 49,8 0 0 208 0,6 932
19 Peldehue 05-05-2026 04:30 10,1 49,6 0 0 208 0,6 932
18 Peldehue 05-05-2026 04:15 10,5 47,4 0 0 208 0,6 932,1
17 Peldehue 05-05-2026 04:00 10,4 47,6 0 0 208 0,6 932,2
16 Peldehue 05-05-2026 03:45 9,3 50,6 0 0 208 0,6 932,4
15 Peldehue 05-05-2026 03:30 9,6 53 0 0 208 0,6 932,4
14 Peldehue 05-05-2026 03:15 9,6 53,4 0 0 208 0,6 932,5
13 Peldehue 05-05-2026 03:00 10,2 50,3 0 0 208 0,6 932,8
12 Peldehue 05-05-2026 02:45 11,1 47,1 0 0 208 0,6 933,3
11 Peldehue 05-05-2026 02:30 12,4 45,8 0 0 208 0,6 933,5
10 Peldehue 05-05-2026 02:15 11,9 46,5 0 0 208 0,6 933,9
9 Peldehue 05-05-2026 02:00 11,2 48,8 0 0 208 0,6 933,9
8 Peldehue 05-05-2026 01:45 12,2 44,3 0 0 208 0,6 933,9
7 Peldehue 05-05-2026 01:30 12,5 43,9 0 0 208 0,6 934
6 Peldehue 05-05-2026 01:15 11,6 46,1 0 0 208 0,6 934,2
5 Peldehue 05-05-2026 01:00 12,2 45 0 0,5 208 0,6 934
4 Peldehue 05-05-2026 00:45 11,8 47,9 0 0 208 0,6 934
3 Peldehue 05-05-2026 00:30 12,2 46,6 0 0 208 0,6 933,9
2 Peldehue 05-05-2026 00:15 13 45 0 0 208 0,6 933,9
1 Peldehue 05-05-2026 00:00 12,8 45,6 0 0 208 0,6 934,1